createdAt,value
2018-06-05T00:00:59.820Z,0.00
2018-06-05T00:01:59.692Z,0.00
2018-06-05T00:02:59.570Z,0.00
2018-06-05T00:03:59.445Z,0.00
2018-06-05T00:04:59.325Z,0.00
2018-06-05T00:05:59.205Z,0.00
2018-06-05T00:06:59.072Z,0.00
2018-06-05T00:07:58.952Z,0.00
2018-06-05T00:08:58.828Z,0.00
2018-06-05T00:09:58.703Z,0.00
2018-06-05T00:10:58.579Z,0.00
2018-06-05T00:11:58.454Z,0.00
2018-06-05T00:12:58.332Z,0.00
2018-06-05T00:13:58.205Z,0.00
2018-06-05T00:14:58.087Z,0.00
2018-06-05T00:15:57.960Z,0.00
2018-06-05T00:16:57.834Z,0.00
2018-06-05T00:17:57.711Z,0.00
2018-06-05T00:18:57.587Z,0.00
2018-06-05T00:19:57.461Z,0.00
2018-06-05T00:20:57.340Z,0.00
2018-06-05T00:21:57.215Z,0.00
2018-06-05T00:22:57.089Z,0.00
2018-06-05T00:23:56.967Z,0.00
2018-06-05T00:24:56.843Z,0.00
2018-06-05T00:25:56.720Z,0.00
2018-06-05T00:26:56.634Z,0.00
2018-06-05T00:27:56.474Z,0.00
2018-06-05T00:28:56.347Z,0.00
2018-06-05T00:29:56.240Z,0.00
2018-06-05T00:30:56.097Z,0.00
2018-06-05T00:31:55.974Z,0.00
2018-06-05T00:32:55.853Z,0.00
2018-06-05T00:33:55.726Z,0.00
2018-06-05T00:34:55.603Z,0.00
2018-06-05T00:35:55.478Z,0.00
2018-06-05T00:36:55.354Z,0.00
2018-06-05T00:37:55.230Z,0.00
2018-06-05T00:38:55.107Z,0.00
2018-06-05T00:39:54.982Z,0.00
2018-06-05T00:40:54.857Z,0.00
2018-06-05T00:41:54.733Z,0.00
2018-06-05T00:42:54.608Z,0.00
2018-06-05T00:43:54.483Z,0.00
2018-06-05T00:44:54.360Z,0.00
2018-06-05T00:45:54.237Z,0.00
2018-06-05T00:46:54.109Z,0.00
2018-06-05T00:47:53.988Z,0.00
2018-06-05T00:48:53.874Z,0.00
2018-06-05T00:49:53.736Z,0.00
2018-06-05T00:50:53.614Z,0.00
2018-06-05T00:51:53.489Z,0.00
2018-06-05T00:52:53.367Z,0.00
2018-06-05T00:53:53.240Z,0.00
2018-06-05T00:54:53.116Z,0.00
2018-06-05T00:55:52.993Z,0.00
2018-06-05T00:56:52.896Z,0.00
2018-06-05T00:57:52.742Z,0.00
2018-06-05T00:58:52.620Z,0.00
2018-06-05T00:59:52.500Z,0.00
2018-06-05T01:00:52.372Z,0.00
2018-06-05T01:01:52.245Z,0.00
2018-06-05T01:02:52.127Z,0.00
2018-06-05T01:03:51.998Z,0.00
2018-06-05T01:04:51.873Z,0.00
2018-06-05T01:05:51.748Z,0.00
2018-06-05T01:06:51.627Z,0.00
2018-06-05T01:07:51.504Z,0.00
2018-06-05T01:08:51.376Z,0.00
2018-06-05T01:09:51.252Z,0.00
2018-06-05T01:10:51.126Z,0.00
2018-06-05T01:11:51.005Z,0.00
2018-06-05T01:12:50.879Z,0.00
2018-06-05T01:13:50.757Z,0.00
2018-06-05T01:14:50.635Z,0.00
2018-06-05T01:15:50.512Z,0.00
2018-06-05T01:16:50.388Z,0.00
2018-06-05T01:17:50.260Z,0.00
2018-06-05T01:18:50.140Z,0.00
2018-06-05T01:19:50.010Z,0.00
2018-06-05T01:20:49.892Z,0.00
2018-06-05T01:21:49.766Z,0.00
2018-06-05T01:22:49.640Z,0.00
2018-06-05T01:23:49.513Z,0.00
2018-06-05T01:24:49.390Z,0.00
2018-06-05T01:25:49.265Z,0.00
2018-06-05T01:26:49.143Z,0.00
2018-06-05T01:27:49.017Z,0.00
2018-06-05T01:28:48.891Z,0.00
2018-06-05T01:29:48.768Z,0.00
2018-06-05T01:30:48.642Z,0.00
2018-06-05T01:31:48.529Z,0.00
2018-06-05T01:32:48.393Z,0.00
2018-06-05T01:33:48.271Z,0.00
2018-06-05T01:34:48.147Z,0.00
2018-06-05T01:35:48.022Z,0.00
2018-06-05T01:36:47.902Z,0.00
2018-06-05T01:37:47.772Z,0.00
2018-06-05T01:38:47.650Z,0.00
2018-06-05T01:39:47.532Z,0.00
2018-06-05T01:40:47.402Z,0.00
2018-06-05T01:41:47.278Z,0.00
2018-06-05T01:42:47.151Z,0.00
2018-06-05T01:43:47.028Z,0.00
2018-06-05T01:44:46.903Z,0.00
2018-06-05T01:45:46.779Z,0.00
2018-06-05T01:46:46.654Z,0.00
2018-06-05T01:47:46.528Z,0.00
2018-06-05T01:48:46.403Z,0.00
2018-06-05T01:49:46.281Z,0.00
2018-06-05T01:50:46.156Z,0.00
2018-06-05T01:51:46.029Z,0.00
2018-06-05T01:52:45.911Z,0.00
2018-06-05T01:53:45.784Z,0.00
2018-06-05T01:54:45.658Z,0.00
2018-06-05T01:55:45.535Z,0.00
2018-06-05T01:56:45.412Z,0.00
2018-06-05T01:57:45.285Z,0.00
2018-06-05T01:58:45.157Z,0.00
2018-06-05T01:59:45.037Z,0.00
2018-06-05T02:00:44.910Z,0.00
2018-06-05T02:01:44.786Z,0.00
2018-06-05T02:02:44.660Z,0.00
2018-06-05T02:03:44.535Z,0.00
2018-06-05T02:04:44.413Z,0.00
2018-06-05T02:05:44.290Z,0.00
2018-06-05T02:06:44.162Z,0.00
2018-06-05T02:07:44.041Z,0.00
2018-06-05T02:08:43.914Z,0.00
2018-06-05T02:09:43.787Z,0.00
2018-06-05T02:10:43.664Z,0.00
2018-06-05T02:11:43.542Z,0.00
2018-06-05T02:12:43.414Z,0.00
2018-06-05T02:13:43.290Z,0.00
2018-06-05T02:14:43.168Z,0.00
2018-06-05T02:15:43.039Z,0.00
2018-06-05T02:16:42.919Z,0.00
2018-06-05T02:17:42.792Z,0.00
2018-06-05T02:18:42.668Z,0.00
2018-06-05T02:19:42.543Z,0.00
2018-06-05T02:20:42.419Z,0.00
2018-06-05T02:21:42.294Z,0.00
2018-06-05T02:22:42.167Z,0.00
2018-06-05T02:23:42.045Z,0.00
2018-06-05T02:24:41.919Z,0.00
2018-06-05T02:25:41.795Z,0.00
2018-06-05T02:26:41.671Z,0.00
2018-06-05T02:27:41.548Z,0.00
2018-06-05T02:28:41.422Z,0.00
2018-06-05T02:29:41.297Z,0.00
2018-06-05T02:30:41.171Z,0.00
2018-06-05T02:31:41.050Z,0.00
2018-06-05T02:32:40.928Z,0.00
2018-06-05T02:33:40.799Z,0.00
2018-06-05T02:34:40.676Z,0.00
2018-06-05T02:35:40.553Z,0.00
2018-06-05T02:36:40.424Z,0.00
2018-06-05T02:37:40.301Z,0.00
2018-06-05T02:38:40.177Z,0.00
2018-06-05T02:39:40.055Z,0.00
2018-06-05T02:40:39.930Z,0.00
2018-06-05T02:41:39.801Z,0.00
2018-06-05T02:42:39.677Z,0.00
2018-06-05T02:43:39.552Z,0.00
2018-06-05T02:44:39.429Z,0.00
2018-06-05T02:45:39.305Z,0.00
2018-06-05T02:46:39.181Z,0.00
2018-06-05T02:47:39.055Z,0.00
2018-06-05T02:48:38.932Z,0.00
2018-06-05T02:49:38.806Z,0.00
2018-06-05T02:50:38.686Z,0.00
2018-06-05T02:51:38.557Z,0.00
2018-06-05T02:52:38.432Z,0.00
2018-06-05T02:53:38.307Z,0.00
2018-06-05T02:54:38.182Z,0.00
2018-06-05T02:55:38.059Z,0.00
2018-06-05T02:56:37.933Z,0.00
2018-06-05T02:57:37.807Z,0.00
2018-06-05T02:58:37.683Z,0.00
2018-06-05T02:59:37.560Z,0.00
2018-06-05T03:00:37.437Z,0.00
2018-06-05T03:01:37.312Z,0.00
2018-06-05T03:02:37.187Z,0.00
2018-06-05T03:03:37.064Z,0.00
2018-06-05T03:04:36.939Z,0.00
2018-06-05T03:05:36.810Z,0.00
2018-06-05T03:06:36.689Z,0.00
2018-06-05T03:07:36.562Z,0.00
2018-06-05T03:08:36.440Z,0.00
2018-06-05T03:09:36.315Z,0.00
2018-06-05T03:10:36.190Z,0.00
2018-06-05T03:11:36.071Z,0.00
2018-06-05T03:12:35.942Z,0.00
2018-06-05T03:13:35.818Z,0.00
2018-06-05T03:14:35.695Z,0.00
2018-06-05T03:15:35.569Z,0.00
2018-06-05T03:16:35.443Z,0.00
2018-06-05T03:17:35.317Z,0.00
2018-06-05T03:18:35.193Z,0.00
2018-06-05T03:19:35.067Z,0.00
2018-06-05T03:20:34.943Z,0.00
2018-06-05T03:21:34.817Z,0.00
2018-06-05T03:22:34.694Z,0.00
2018-06-05T03:23:34.570Z,0.00
2018-06-05T03:24:34.444Z,0.00
2018-06-05T03:25:34.320Z,0.00
2018-06-05T03:26:34.197Z,0.00
2018-06-05T03:27:34.073Z,0.00
2018-06-05T03:28:33.948Z,0.00
2018-06-05T03:29:33.820Z,0.00
2018-06-05T03:30:33.697Z,0.00
2018-06-05T03:31:33.574Z,0.00
2018-06-05T03:32:33.447Z,0.00
2018-06-05T03:33:33.326Z,5.63
2018-06-05T03:34:33.197Z,5.63
2018-06-05T03:35:33.074Z,5.63
2018-06-05T03:36:32.952Z,5.63
2018-06-05T03:37:32.827Z,5.63
2018-06-05T03:38:32.699Z,5.63
2018-06-05T03:39:32.573Z,5.63
2018-06-05T03:40:32.448Z,5.63
2018-06-05T03:41:32.323Z,5.63
2018-06-05T03:42:32.200Z,5.63
2018-06-05T03:43:32.084Z,5.63
2018-06-05T03:44:31.950Z,5.63
2018-06-05T03:45:31.825Z,11.25
2018-06-05T03:46:31.702Z,11.25
2018-06-05T03:47:31.576Z,11.25
2018-06-05T03:48:31.494Z,11.25
2018-06-05T03:49:31.326Z,11.25
2018-06-05T03:50:31.205Z,11.25
2018-06-05T03:51:31.080Z,11.25
2018-06-05T03:52:30.957Z,11.25
2018-06-05T03:53:30.828Z,11.25
2018-06-05T03:54:30.706Z,11.25
2018-06-05T03:55:30.579Z,11.25
2018-06-05T03:56:30.468Z,11.25
2018-06-05T03:57:30.332Z,11.25
2018-06-05T03:58:30.207Z,16.88
2018-06-05T03:59:30.090Z,16.88
2018-06-05T04:00:29.956Z,16.88
2018-06-05T04:01:29.833Z,16.88
2018-06-05T04:02:29.707Z,16.88
2018-06-05T04:03:29.583Z,16.88
2018-06-05T04:04:29.462Z,16.88
2018-06-05T04:05:29.337Z,16.88
2018-06-05T04:06:29.214Z,16.88
2018-06-05T04:07:29.089Z,16.88
2018-06-05T04:08:28.967Z,16.88
2018-06-05T04:09:28.837Z,22.50
2018-06-05T04:10:28.715Z,22.50
2018-06-05T04:11:28.590Z,22.50
2018-06-05T04:12:28.467Z,22.50
2018-06-05T04:13:28.342Z,22.50
2018-06-05T04:14:28.216Z,22.50
2018-06-05T04:15:28.090Z,22.50
2018-06-05T04:16:27.970Z,22.50
2018-06-05T04:17:27.840Z,22.50
2018-06-05T04:18:27.727Z,22.50
2018-06-05T04:19:27.591Z,22.50
2018-06-05T04:20:27.465Z,28.13
2018-06-05T04:21:27.343Z,28.13
2018-06-05T04:22:27.216Z,28.13
2018-06-05T04:23:27.097Z,28.13
2018-06-05T04:24:26.968Z,28.13
2018-06-05T04:25:26.846Z,28.13
2018-06-05T04:26:26.723Z,28.13
2018-06-05T04:27:26.594Z,28.13
2018-06-05T04:28:26.471Z,33.75
2018-06-05T04:29:26.345Z,33.75
2018-06-05T04:30:26.221Z,45.00
2018-06-05T04:31:26.096Z,45.00
2018-06-05T04:32:25.972Z,45.00
2018-06-05T04:33:25.847Z,45.00
2018-06-05T04:34:25.725Z,45.00
2018-06-05T04:35:25.600Z,45.00
2018-06-05T04:36:25.477Z,50.63
2018-06-05T04:37:25.447Z,50.63
2018-06-05T04:38:25.222Z,50.63
2018-06-05T04:39:25.111Z,50.63
2018-06-05T04:40:24.977Z,50.63
2018-06-05T04:41:24.850Z,50.63
2018-06-05T04:42:24.728Z,50.63
2018-06-05T04:43:24.604Z,50.63
2018-06-05T04:44:24.481Z,56.25
2018-06-05T04:45:24.354Z,56.25
2018-06-05T04:46:24.239Z,56.25
2018-06-05T04:47:24.105Z,56.25
2018-06-05T04:48:23.984Z,56.25
2018-06-05T04:49:23.862Z,56.25
2018-06-05T04:50:23.734Z,56.25
2018-06-05T04:51:23.613Z,56.25
2018-06-05T04:52:23.488Z,56.25
2018-06-05T04:53:23.363Z,61.88
2018-06-05T04:54:23.242Z,61.88
2018-06-05T04:55:23.120Z,61.88
2018-06-05T04:56:23.001Z,61.88
2018-06-05T04:57:22.871Z,61.88
2018-06-05T04:58:22.746Z,61.88
2018-06-05T04:59:22.625Z,61.88
2018-06-05T05:00:22.502Z,61.88
2018-06-05T05:01:22.377Z,61.88
2018-06-05T05:02:22.255Z,61.88
2018-06-05T05:03:22.154Z,61.88
2018-06-05T05:04:22.005Z,61.88
2018-06-05T05:05:21.882Z,61.88
2018-06-05T05:06:21.765Z,67.50
2018-06-05T05:07:21.643Z,67.50
2018-06-05T05:08:21.513Z,67.50
2018-06-05T05:09:21.391Z,67.50
2018-06-05T05:10:21.272Z,67.50
2018-06-05T05:11:21.144Z,67.50
2018-06-05T05:12:21.024Z,67.50
2018-06-05T05:13:20.898Z,67.50
2018-06-05T05:14:20.780Z,67.50
2018-06-05T05:15:20.655Z,67.50
2018-06-05T05:16:20.584Z,67.50
2018-06-05T05:17:20.407Z,67.50
2018-06-05T05:18:20.284Z,67.50
2018-06-05T05:19:20.162Z,67.50
2018-06-05T05:20:20.037Z,67.50
2018-06-05T05:21:19.914Z,67.50
2018-06-05T05:22:19.794Z,67.50
2018-06-05T05:23:19.687Z,67.50
2018-06-05T05:24:19.546Z,67.50
2018-06-05T05:25:19.423Z,67.50
2018-06-05T05:26:19.302Z,67.50
2018-06-05T05:27:19.178Z,67.50
2018-06-05T05:28:19.057Z,67.50
2018-06-05T05:29:18.935Z,67.50
2018-06-05T05:30:18.811Z,67.50
2018-06-05T05:31:18.689Z,67.50
2018-06-05T05:32:18.566Z,67.50
2018-06-05T05:33:18.443Z,67.50
2018-06-05T05:34:18.323Z,67.50
2018-06-05T05:35:18.199Z,67.50
2018-06-05T05:36:18.075Z,67.50
2018-06-05T05:37:17.956Z,67.50
2018-06-05T05:38:17.827Z,73.13
2018-06-05T05:39:17.706Z,73.13
2018-06-05T05:40:17.585Z,73.13
2018-06-05T05:41:17.461Z,73.13
2018-06-05T05:42:17.340Z,73.13
2018-06-05T05:43:17.220Z,73.13
2018-06-05T05:44:17.095Z,73.13
2018-06-05T05:45:16.974Z,73.13
2018-06-05T05:46:16.856Z,73.13
2018-06-05T05:47:16.731Z,73.13
2018-06-05T05:48:16.609Z,73.13
2018-06-05T05:49:16.485Z,73.13
2018-06-05T05:50:16.362Z,73.13
2018-06-05T05:51:16.242Z,73.13
2018-06-05T05:52:16.118Z,73.13
2018-06-05T05:53:15.993Z,73.13
2018-06-05T05:54:15.875Z,73.13
2018-06-05T05:55:15.751Z,73.13
2018-06-05T05:56:15.629Z,73.13
2018-06-05T05:57:15.507Z,73.13
2018-06-05T05:58:15.384Z,73.13
2018-06-05T05:59:15.262Z,78.75
2018-06-05T06:00:15.141Z,78.75
2018-06-05T06:01:15.020Z,78.75
2018-06-05T06:02:14.900Z,78.75
2018-06-05T06:03:14.778Z,78.75
2018-06-05T06:04:14.654Z,78.75
2018-06-05T06:05:14.530Z,78.75
2018-06-05T06:06:14.413Z,78.75
2018-06-05T06:07:14.291Z,78.75
2018-06-05T06:08:14.170Z,78.75
2018-06-05T06:09:14.044Z,78.75
2018-06-05T06:10:13.924Z,78.75
2018-06-05T06:11:13.803Z,78.75
2018-06-05T06:12:13.680Z,78.75
2018-06-05T06:13:13.559Z,78.75
2018-06-05T06:14:13.434Z,78.75
2018-06-05T06:15:13.313Z,78.75
2018-06-05T06:16:13.193Z,78.75
2018-06-05T06:17:13.071Z,78.75
2018-06-05T06:18:12.949Z,84.38
2018-06-05T06:19:12.825Z,78.75
2018-06-05T06:20:12.706Z,78.75
2018-06-05T06:21:12.583Z,78.75
2018-06-05T06:22:12.465Z,78.75
2018-06-05T06:23:12.340Z,78.75
2018-06-05T06:24:12.218Z,78.75
2018-06-05T06:25:12.096Z,78.75
2018-06-05T06:26:11.974Z,78.75
2018-06-05T06:27:11.851Z,78.75
2018-06-05T06:28:11.732Z,78.75
2018-06-05T06:29:11.610Z,78.75
2018-06-05T06:30:11.487Z,78.75
2018-06-05T06:31:11.369Z,84.38
2018-06-05T06:32:11.246Z,84.38
2018-06-05T06:33:11.122Z,84.38
2018-06-05T06:34:11.002Z,84.38
2018-06-05T06:35:10.883Z,84.38
2018-06-05T06:36:10.759Z,84.38
2018-06-05T06:37:10.636Z,84.38
2018-06-05T06:38:10.516Z,84.38
2018-06-05T06:39:10.398Z,84.38
2018-06-05T06:40:10.273Z,84.38
2018-06-05T06:41:10.152Z,84.38
2018-06-05T06:42:10.035Z,84.38
2018-06-05T06:43:09.908Z,84.38
2018-06-05T06:44:09.787Z,84.38
2018-06-05T06:45:09.666Z,84.38
2018-06-05T06:46:09.544Z,84.38
2018-06-05T06:47:09.424Z,84.38
2018-06-05T06:48:09.301Z,84.38
2018-06-05T06:49:09.179Z,84.38
2018-06-05T06:50:09.058Z,84.38
2018-06-05T06:51:08.940Z,84.38
2018-06-05T06:52:08.816Z,84.38
2018-06-05T06:53:08.693Z,84.38
2018-06-05T06:54:08.611Z,84.38
2018-06-05T06:55:08.454Z,90.00
2018-06-05T06:56:08.332Z,90.00
2018-06-05T06:57:08.209Z,90.00
2018-06-05T06:58:08.090Z,90.00
2018-06-05T06:59:07.963Z,90.00
2018-06-05T07:00:07.854Z,90.00
2018-06-05T07:01:07.721Z,90.00
2018-06-05T07:02:07.602Z,90.00
2018-06-05T07:03:07.481Z,90.00
2018-06-05T07:04:07.363Z,90.00
2018-06-05T07:05:07.239Z,90.00
2018-06-05T07:06:07.116Z,90.00
2018-06-05T07:07:06.998Z,90.00
2018-06-05T07:08:06.877Z,90.00
2018-06-05T07:09:06.753Z,90.00
2018-06-05T07:10:06.631Z,90.00
2018-06-05T07:11:06.511Z,90.00
2018-06-05T07:12:06.393Z,90.00
2018-06-05T07:13:06.270Z,90.00
2018-06-05T07:14:06.146Z,90.00
2018-06-05T07:15:06.027Z,90.00
2018-06-05T07:16:05.907Z,95.63
2018-06-05T07:17:05.785Z,95.63
2018-06-05T07:18:05.662Z,95.63
2018-06-05T07:19:05.542Z,95.63
2018-06-05T07:20:05.422Z,95.63
2018-06-05T07:21:05.303Z,95.63
2018-06-05T07:22:05.182Z,95.63
2018-06-05T07:23:05.064Z,95.63
2018-06-05T07:24:04.977Z,95.63
2018-06-05T07:25:04.819Z,95.63
2018-06-05T07:26:04.697Z,95.63
2018-06-05T07:27:04.580Z,95.63
2018-06-05T07:28:04.460Z,95.63
2018-06-05T07:29:04.332Z,95.63
2018-06-05T07:30:04.213Z,95.63
2018-06-05T07:31:04.092Z,95.63
2018-06-05T07:32:03.974Z,95.63
2018-06-05T07:33:03.850Z,95.63
2018-06-05T07:34:03.732Z,95.63
2018-06-05T07:35:03.609Z,95.63
2018-06-05T07:36:03.488Z,95.63
2018-06-05T07:37:03.372Z,95.63
2018-06-05T07:38:03.244Z,101.25
2018-06-05T07:39:03.125Z,101.25
2018-06-05T07:40:03.006Z,101.25
2018-06-05T07:41:02.883Z,101.25
2018-06-05T07:42:02.763Z,101.25
2018-06-05T07:43:02.644Z,101.25
2018-06-05T07:44:02.522Z,101.25
2018-06-05T07:45:02.401Z,101.25
2018-06-05T07:46:02.282Z,101.25
2018-06-05T07:47:02.161Z,101.25
2018-06-05T07:48:02.040Z,101.25
2018-06-05T07:49:01.919Z,101.25
2018-06-05T07:50:01.875Z,101.25
2018-06-05T07:51:01.677Z,101.25
2018-06-05T07:52:01.558Z,101.25
2018-06-05T07:53:01.439Z,101.25
2018-06-05T07:54:01.319Z,101.25
2018-06-05T07:55:01.195Z,101.25
2018-06-05T07:56:01.079Z,101.25
2018-06-05T07:57:00.955Z,101.25
2018-06-05T07:58:00.834Z,101.25
2018-06-05T07:59:00.716Z,101.25
2018-06-05T08:00:00.595Z,101.25
2018-06-05T08:01:00.473Z,101.25
2018-06-05T08:02:00.354Z,101.25
2018-06-05T08:03:00.231Z,101.25
2018-06-05T08:04:00.115Z,101.25
2018-06-05T08:04:59.994Z,101.25
2018-06-05T08:05:59.874Z,101.25
2018-06-05T08:06:59.751Z,101.25
2018-06-05T08:07:59.632Z,101.25
2018-06-05T08:08:59.514Z,101.25
2018-06-05T08:09:59.392Z,106.88
2018-06-05T08:10:59.271Z,106.88
2018-06-05T08:11:59.156Z,106.88
2018-06-05T08:12:59.033Z,106.88
2018-06-05T08:13:58.916Z,106.88
2018-06-05T08:14:58.795Z,106.88
2018-06-05T08:15:58.673Z,106.88
2018-06-05T08:16:58.557Z,106.88
2018-06-05T08:17:58.435Z,106.88
2018-06-05T08:18:58.322Z,106.88
2018-06-05T08:19:58.197Z,106.88
2018-06-05T08:20:58.078Z,106.88
2018-06-05T08:21:57.958Z,112.50
2018-06-05T08:22:57.836Z,106.88
2018-06-05T08:23:57.724Z,106.88
2018-06-05T08:24:57.597Z,106.88
2018-06-05T08:25:57.479Z,106.88
2018-06-05T08:26:57.365Z,106.88
2018-06-05T08:27:57.244Z,106.88
2018-06-05T08:28:57.126Z,106.88
2018-06-05T08:29:57.004Z,106.88
2018-06-05T08:30:56.886Z,112.50
2018-06-05T08:31:56.769Z,112.50
2018-06-05T08:32:56.647Z,112.50
2018-06-05T08:33:56.526Z,112.50
2018-06-05T08:34:56.413Z,112.50
2018-06-05T08:35:56.292Z,112.50
2018-06-05T08:36:56.171Z,112.50
2018-06-05T08:37:56.069Z,112.50
2018-06-05T08:38:55.939Z,112.50
2018-06-05T08:39:55.817Z,112.50
2018-06-05T08:40:55.697Z,112.50
2018-06-05T08:41:55.576Z,112.50
2018-06-05T08:42:55.458Z,112.50
2018-06-05T08:43:55.340Z,112.50
2018-06-05T08:44:55.221Z,112.50
2018-06-05T08:45:55.105Z,112.50
2018-06-05T08:46:54.984Z,112.50
2018-06-05T08:47:54.871Z,112.50
2018-06-05T08:48:54.746Z,112.50
2018-06-05T08:49:54.630Z,112.50
2018-06-05T08:50:54.511Z,112.50
2018-06-05T08:51:54.392Z,112.50
2018-06-05T08:52:54.275Z,112.50
2018-06-05T08:53:54.155Z,118.13
2018-06-05T08:54:54.036Z,118.13
2018-06-05T08:55:53.919Z,118.13
2018-06-05T08:56:53.797Z,118.13
2018-06-05T08:57:53.683Z,118.13
2018-06-05T08:58:53.569Z,118.13
2018-06-05T08:59:53.501Z,112.50
2018-06-05T09:00:53.327Z,112.50
2018-06-05T09:01:53.214Z,112.50
2018-06-05T09:02:53.089Z,112.50
2018-06-05T09:03:52.976Z,118.13
2018-06-05T09:04:52.857Z,123.75
2018-06-05T09:05:52.735Z,118.13
2018-06-05T09:06:52.621Z,118.13
2018-06-05T09:07:52.502Z,118.13
2018-06-05T09:08:52.382Z,118.13
2018-06-05T09:09:52.266Z,123.75
2018-06-05T09:10:52.180Z,123.75
2018-06-05T09:11:52.032Z,123.75
2018-06-05T09:12:51.957Z,123.75
2018-06-05T09:13:51.797Z,118.13
2018-06-05T09:14:51.676Z,123.75
2018-06-05T09:15:51.559Z,101.25
2018-06-05T09:16:51.442Z,95.63
2018-06-05T09:17:51.320Z,118.13
2018-06-05T09:18:51.200Z,123.75
2018-06-05T09:19:51.087Z,123.75
2018-06-05T09:20:50.970Z,90.00
2018-06-05T09:21:50.850Z,90.00
2018-06-05T09:22:50.732Z,84.38
2018-06-05T09:23:50.614Z,90.00
2018-06-05T09:24:50.496Z,95.63
2018-06-05T09:25:50.380Z,95.63
2018-06-05T09:26:50.262Z,90.00
2018-06-05T09:27:50.141Z,90.00
2018-06-05T09:28:50.024Z,84.38
2018-06-05T09:29:49.906Z,95.63
2018-06-05T09:30:49.787Z,140.63
2018-06-05T09:31:49.670Z,168.75
2018-06-05T09:32:49.554Z,163.13
2018-06-05T09:33:49.432Z,196.88
2018-06-05T09:34:49.317Z,191.25
2018-06-05T09:35:49.199Z,135.00
2018-06-05T09:36:51.260Z,118.13
2018-06-05T09:37:48.964Z,135.00
2018-06-05T09:38:48.842Z,146.25
2018-06-05T09:39:48.722Z,106.88
2018-06-05T09:40:48.606Z,95.63
2018-06-05T09:41:48.489Z,95.63
2018-06-05T09:42:48.370Z,95.63
2018-06-05T09:43:48.251Z,95.63
2018-06-05T09:44:48.131Z,90.00
2018-06-05T09:45:48.015Z,135.00
2018-06-05T09:46:48.810Z,135.00
2018-06-05T09:47:47.777Z,95.63
2018-06-05T09:48:47.662Z,95.63
2018-06-05T09:49:47.541Z,129.38
2018-06-05T09:50:47.421Z,95.63
2018-06-05T09:51:47.305Z,123.75
2018-06-05T09:52:47.185Z,146.25
2018-06-05T09:53:47.070Z,146.25
2018-06-05T09:54:46.952Z,140.63
2018-06-05T09:55:46.832Z,140.63
2018-06-05T09:56:46.742Z,123.75
2018-06-05T09:57:46.727Z,101.25
2018-06-05T09:58:46.479Z,101.25
2018-06-05T09:59:46.361Z,106.88
2018-06-05T10:00:46.242Z,151.88
2018-06-05T10:01:46.123Z,163.13
2018-06-05T10:02:46.008Z,168.75
2018-06-05T10:03:45.937Z,185.63
2018-06-05T10:04:45.771Z,202.50
2018-06-05T10:05:45.653Z,191.25
2018-06-05T10:06:45.534Z,174.38
2018-06-05T10:07:45.418Z,168.75
2018-06-05T10:08:45.301Z,219.38
2018-06-05T10:09:45.181Z,225.00
2018-06-05T10:10:45.067Z,225.00
2018-06-05T10:11:44.947Z,219.38
2018-06-05T10:12:44.828Z,208.13
2018-06-05T10:13:44.711Z,196.88
2018-06-05T10:14:44.594Z,180.00
2018-06-05T10:15:44.483Z,174.38
2018-06-05T10:16:44.361Z,174.38
2018-06-05T10:17:44.245Z,112.50
2018-06-05T10:18:44.125Z,106.88
2018-06-05T10:19:44.013Z,106.88
2018-06-05T10:20:43.890Z,101.25
2018-06-05T10:21:43.773Z,106.88
2018-06-05T10:22:43.658Z,118.13
2018-06-05T10:23:43.545Z,129.38
2018-06-05T10:24:43.420Z,146.25
2018-06-05T10:25:43.304Z,163.13
2018-06-05T10:26:43.187Z,230.63
2018-06-05T10:27:43.070Z,258.75
2018-06-05T10:28:42.953Z,247.50
2018-06-05T10:29:42.834Z,331.88
2018-06-05T10:30:42.717Z,331.88
2018-06-05T10:31:42.604Z,337.50
2018-06-05T10:32:42.483Z,303.75
2018-06-05T10:33:42.366Z,303.75
2018-06-05T10:34:42.279Z,292.50
2018-06-05T10:35:42.135Z,292.50
2018-06-05T10:36:42.019Z,292.50
2018-06-05T10:37:41.900Z,298.13
2018-06-05T10:38:41.784Z,286.88
2018-06-05T10:39:41.666Z,247.50
2018-06-05T10:40:41.547Z,281.25
2018-06-05T10:41:41.437Z,258.75
2018-06-05T10:42:41.315Z,202.50
2018-06-05T10:43:41.202Z,185.63
2018-06-05T10:44:41.086Z,185.63
2018-06-05T10:45:40.970Z,208.13
2018-06-05T10:46:40.866Z,230.63
2018-06-05T10:47:40.740Z,219.38
2018-06-05T10:48:40.621Z,230.63
2018-06-05T10:49:40.504Z,236.25
2018-06-05T10:50:40.389Z,236.25
2018-06-05T10:51:40.274Z,236.25
2018-06-05T10:52:40.154Z,258.75
2018-06-05T10:53:40.078Z,275.63
2018-06-05T10:54:39.924Z,303.75
2018-06-05T10:55:39.809Z,360.00
2018-06-05T10:56:39.690Z,405.00
2018-06-05T10:57:39.580Z,410.63
2018-06-05T10:58:39.457Z,365.63
2018-06-05T10:59:39.347Z,320.63
2018-06-05T11:00:39.227Z,326.25
2018-06-05T11:01:39.112Z,376.88
2018-06-05T11:02:38.993Z,421.88
2018-06-05T11:03:38.879Z,438.75
2018-06-05T11:04:38.762Z,495.00
2018-06-05T11:05:38.648Z,523.13
2018-06-05T11:06:38.531Z,517.50
2018-06-05T11:07:38.414Z,506.25
2018-06-05T11:08:38.298Z,495.00
2018-06-05T11:09:38.183Z,472.50
2018-06-05T11:10:40.806Z,483.75
2018-06-05T11:11:37.953Z,466.88
2018-06-05T11:12:37.842Z,438.75
2018-06-05T11:13:37.723Z,450.00
2018-06-05T11:14:37.607Z,433.13
2018-06-05T11:15:37.492Z,466.88
2018-06-05T11:16:37.374Z,472.50
2018-06-05T11:17:37.256Z,489.38
2018-06-05T11:18:37.143Z,500.63
2018-06-05T11:19:37.026Z,511.88
2018-06-05T11:20:36.911Z,489.38
2018-06-05T11:21:36.793Z,472.50
2018-06-05T11:22:36.680Z,455.63
2018-06-05T11:23:36.567Z,438.75
2018-06-05T11:24:36.448Z,421.88
2018-06-05T11:25:36.330Z,399.38
2018-06-05T11:26:36.216Z,371.25
2018-06-05T11:27:36.099Z,343.13
2018-06-05T11:28:35.982Z,337.50
2018-06-05T11:29:35.912Z,331.88
2018-06-05T11:30:35.751Z,326.25
2018-06-05T11:31:35.638Z,315.00
2018-06-05T11:32:35.518Z,315.00
2018-06-05T11:33:35.402Z,320.63
2018-06-05T11:34:35.286Z,337.50
2018-06-05T11:35:35.170Z,360.00
2018-06-05T11:36:35.082Z,376.88
2018-06-05T11:37:34.937Z,388.13
2018-06-05T11:38:34.826Z,410.63
2018-06-05T11:39:34.704Z,421.88
2018-06-05T11:40:34.588Z,427.50
2018-06-05T11:41:34.472Z,416.25
2018-06-05T11:42:34.354Z,410.63
2018-06-05T11:43:34.237Z,399.38
2018-06-05T11:44:34.123Z,382.50
2018-06-05T11:45:34.006Z,371.25
2018-06-05T11:46:33.922Z,376.88
2018-06-05T11:47:33.784Z,388.13
2018-06-05T11:48:33.676Z,410.63
2018-06-05T11:49:33.544Z,438.75
2018-06-05T11:50:33.422Z,450.00
2018-06-05T11:51:33.306Z,478.13
2018-06-05T11:52:33.200Z,607.50
2018-06-05T11:53:33.072Z,663.75
2018-06-05T11:54:32.959Z,646.88
2018-06-05T11:55:32.840Z,517.50
2018-06-05T11:56:32.725Z,461.25
2018-06-05T11:57:32.608Z,416.25
2018-06-05T11:58:32.489Z,427.50
2018-06-05T11:59:32.377Z,444.38
2018-06-05T12:00:32.262Z,444.38
2018-06-05T12:01:32.146Z,450.00
2018-06-05T12:02:32.031Z,433.13
2018-06-05T12:03:31.912Z,421.88
2018-06-05T12:04:31.809Z,393.75
2018-06-05T12:05:33.842Z,399.38
2018-06-05T12:06:31.563Z,405.00
2018-06-05T12:07:31.453Z,382.50
2018-06-05T12:08:31.329Z,450.00
2018-06-05T12:09:31.216Z,337.50
2018-06-05T12:10:31.101Z,298.13
2018-06-05T12:11:30.982Z,331.88
2018-06-05T12:12:30.870Z,388.13
2018-06-05T12:13:30.751Z,427.50
2018-06-05T12:14:30.636Z,438.75
2018-06-05T12:15:30.518Z,433.13
2018-06-05T12:16:30.404Z,556.88
2018-06-05T12:17:30.286Z,551.25
2018-06-05T12:18:30.172Z,556.88
2018-06-05T12:19:30.056Z,528.75
2018-06-05T12:20:29.941Z,461.25
2018-06-05T12:21:29.823Z,360.00
2018-06-05T12:22:29.732Z,303.75
2018-06-05T12:23:29.627Z,309.38
2018-06-05T12:24:29.478Z,360.00
2018-06-05T12:25:29.417Z,399.38
2018-06-05T12:26:29.244Z,393.75
2018-06-05T12:27:29.131Z,382.50
2018-06-05T12:28:29.016Z,382.50
2018-06-05T12:29:28.900Z,393.75
2018-06-05T12:30:28.780Z,399.38
2018-06-05T12:31:28.670Z,393.75
2018-06-05T12:32:28.556Z,376.88
2018-06-05T12:33:28.435Z,365.63
2018-06-05T12:34:28.316Z,348.75
2018-06-05T12:35:28.205Z,331.88
2018-06-05T12:36:28.088Z,326.25
2018-06-05T12:37:27.968Z,337.50
2018-06-05T12:38:27.854Z,337.50
2018-06-05T12:39:27.736Z,360.00
2018-06-05T12:40:27.687Z,483.75
2018-06-05T12:41:27.508Z,618.75
2018-06-05T12:42:27.390Z,635.63
2018-06-05T12:43:27.275Z,658.13
2018-06-05T12:44:27.156Z,686.25
2018-06-05T12:45:27.040Z,708.75
2018-06-05T12:46:26.930Z,765.00
2018-06-05T12:47:26.816Z,849.38
2018-06-05T12:48:26.700Z,832.50
2018-06-05T12:49:26.584Z,950.63